Time;durP1;ratioP1;P1;durP2;ratioP2;P2;SDS_P1;SDS_P2;PMS_P1;PMS_P2;Temp;Humidity;BMP_temperature;BMP_pressure;BME280_temperature;BME280_humidity;BME280_pressure;Samples;Min_cycle;Max_cycle;Signal;HPM_P1;HPM_P2
2022/08/29 00:00:29;;;;;;;31.63;9.05;;;;;;;17.91;86.75;101656.94;5070304;28;20305;-69
2022/08/29 00:02:56;;;;;;;42.58;9.63;;;;;;;17.96;86.89;101638.03;5070083;28;20047;-70
2022/08/29 00:05:25;;;;;;;33.38;9.35;;;;;;;17.89;87.24;101643.41;5069999;28;20024;-68
2022/08/29 00:07:51;;;;;;;35.45;8.57;;;;;;;17.94;87.03;101651.09;5087553;28;20070;-69
2022/08/29 00:10:16;;;;;;;43.10;8.65;;;;;;;17.89;87.15;101646.16;5069357;28;20465;-69
2022/08/29 00:12:42;;;;;;;51.78;9.52;;;;;;;17.74;88.27;101655.41;5069568;28;20111;-68
2022/08/29 00:15:10;;;;;;;32.55;8.57;;;;;;;17.86;87.85;101648.41;5069319;28;20027;-68
2022/08/29 00:17:35;;;;;;;36.03;8.43;;;;;;;17.88;87.92;101641.72;5069206;28;20028;-69
2022/08/29 00:20:02;;;;;;;39.20;9.13;;;;;;;18.06;87.07;101638.63;5087084;28;20078;-70
2022/08/29 00:22:27;;;;;;;32.63;9.27;;;;;;;18.12;86.65;101640.56;5062030;28;20020;-68
2022/08/29 00:24:52;;;;;;;32.15;8.68;;;;;;;18.12;86.78;101637.84;5086883;28;20077;-69
2022/08/29 00:27:18;;;;;;;35.40;8.55;;;;;;;17.91;87.65;101645.97;5087327;28;20024;-69
2022/08/29 00:29:43;;;;;;;37.75;8.73;;;;;;;18.28;86.57;101641.44;5086955;28;20120;-70
2022/08/29 00:32:08;;;;;;;44.22;8.95;;;;;;;18.28;85.95;101646.94;5087304;28;20114;-71
2022/08/29 00:34:34;;;;;;;38.65;9.77;;;;;;;18.18;86.43;101653.53;5081310;28;20569;-71
2022/08/29 00:36:59;;;;;;;44.08;9.82;;;;;;;17.92;88.06;101653.13;5087766;28;20041;-71
2022/08/29 00:39:24;;;;;;;36.97;8.63;;;;;;;17.71;89.50;101650.25;5087717;28;20036;-69
2022/08/29 00:41:50;;;;;;;43.50;10.20;;;;;;;17.54;90.23;101658.63;5086562;28;20032;-69
2022/08/29 00:44:16;;;;;;;40.03;10.93;;;;;;;17.77;89.80;101657.75;5086171;28;20036;-70
2022/08/29 00:46:46;;;;;;;45.50;10.43;;;;;;;17.96;88.73;101659.97;5085479;28;20047;-71
2022/08/29 00:49:23;;;;;;;34.85;9.07;;;;;;;18.08;88.13;101658.47;5068338;28;20020;-70
2022/08/29 00:51:48;;;;;;;40.92;9.85;;;;;;;18.24;87.30;101662.03;5069017;28;20052;-70
2022/08/29 00:54:15;;;;;;;41.03;9.75;;;;;;;18.04;88.32;101661.75;5069022;28;20101;-70
2022/08/29 00:56:42;;;;;;;34.03;9.55;;;;;;;18.24;87.03;101667.53;5086694;28;20024;-70
2022/08/29 00:59:12;;;;;;;43.47;11.57;;;;;;;18.32;86.87;101664.69;5068533;28;20035;-70
2022/08/29 01:01:38;;;;;;;38.30;10.48;;;;;;;18.33;86.86;101666.41;5068277;28;20012;-70
2022/08/29 01:04:05;;;;;;;45.13;10.77;;;;;;;18.22;87.65;101669.63;5068845;28;20024;-70
2022/08/29 01:06:31;;;;;;;35.90;11.13;;;;;;;18.16;88.08;101661.09;5087198;28;20119;-70
2022/08/29 01:08:57;;;;;;;38.15;10.43;;;;;;;18.30;87.17;101655.81;5068654;28;20097;-71
2022/08/29 01:14:08;;;;;;;37.78;9.52;;;;;;;18.20;88.05;101666.22;5086886;28;20047;-68
2022/08/29 01:16:36;;;;;;;44.47;11.35;;;;;;;18.07;88.40;101661.41;5069146;28;20124;-69
2022/08/29 01:19:12;;;;;;;34.42;10.63;;;;;;;18.10;88.46;101661.00;5068109;28;20023;-70
2022/08/29 01:21:54;;;;;;;45.70;9.93;;;;;;;18.28;87.79;101663.38;5067859;28;20016;-68
2022/08/29 01:24:38;;;;;;;34.83;10.25;;;;;;;18.20;88.16;101667.06;5068854;28;20024;-71
2022/08/29 01:27:04;;;;;;;44.60;11.05;;;;;;;18.00;88.96;101672.25;5065177;28;20031;-68
2022/08/29 01:29:29;;;;;;;36.30;10.07;;;;;;;18.12;89.15;101659.75;5064394;28;20021;-70
2022/08/29 01:31:55;;;;;;;39.63;10.93;;;;;;;18.15;88.70;101659.41;5065524;28;20051;-70
2022/08/29 01:34:20;;;;;;;47.67;11.25;;;;;;;18.27;88.19;101656.19;5065073;28;20563;-70
2022/08/29 01:36:50;;;;;;;38.60;10.80;;;;;;;18.05;89.34;101656.06;5064835;28;20025;-70
2022/08/29 01:39:18;;;;;;;49.47;12.73;;;;;;;18.02;89.61;101672.91;5066329;28;20111;-70
2022/08/29 01:41:44;;;;;;;30.15;10.07;;;;;;;18.11;89.38;101662.69;5064895;28;20044;-71
2022/08/29 01:44:17;;;;;;;46.38;11.50;;;;;;;18.28;88.51;101674.34;5065457;28;20493;-70
2022/08/29 01:46:43;;;;;;;40.55;11.25;;;;;;;18.21;88.68;101668.78;5066462;28;20025;-70
2022/08/29 01:49:11;;;;;;;49.08;11.27;;;;;;;18.16;89.12;101666.59;5084775;28;20038;-70
2022/08/29 01:51:37;;;;;;;49.78;11.98;;;;;;;18.24;89.05;101667.53;5068117;28;20073;-70
2022/08/29 01:54:07;;;;;;;38.50;10.18;;;;;;;18.37;87.63;101664.97;5068225;28;20024;-70
2022/08/29 01:56:36;;;;;;;30.90;10.00;;;;;;;18.16;88.70;101674.81;5086536;28;20028;-69
2022/08/29 01:59:04;;;;;;;37.03;9.80;;;;;;;18.08;89.84;101674.91;5085782;28;20108;-70
2022/08/29 02:01:33;;;;;;;35.67;10.52;;;;;;;17.85;91.05;101679.59;5089503;28;20035;-70
2022/08/29 02:03:59;;;;;;;33.55;10.48;;;;;;;17.98;90.40;101674.31;5072494;28;20061;-69
2022/08/29 02:06:26;;;;;;;37.50;11.45;;;;;;;18.08;89.72;101669.44;5071767;28;20020;-69
2022/08/29 02:08:52;;;;;;;39.85;9.82;;;;;;;18.23;88.97;101676.78;5089702;28;20028;-69
2022/08/29 02:11:18;;;;;;;45.13;11.40;;;;;;;18.04;89.88;101669.97;5072899;28;20089;-68
2022/08/29 02:13:51;;;;;;;43.60;9.98;;;;;;;18.07;89.79;101667.72;5074506;28;20024;-69
2022/08/29 02:16:17;;;;;;;36.40;9.10;;;;;;;18.12;89.73;101665.25;5074435;28;20059;-69
2022/08/29 02:18:43;;;;;;;47.17;10.60;;;;;;;18.21;89.13;101668.78;5073771;28;20024;-70
2022/08/29 02:21:10;;;;;;;45.50;11.05;;;;;;;18.07;89.87;101662.25;5070728;28;20024;-70
2022/08/29 02:23:37;;;;;;;35.40;9.02;;;;;;;18.33;88.50;101677.38;5079388;28;20024;-70
2022/08/29 02:26:04;;;;;;;33.42;9.50;;;;;;;18.45;87.66;101670.34;5094354;28;20118;-70
2022/08/29 02:28:30;;;;;;;35.28;9.35;;;;;;;18.39;87.93;101665.66;5094151;28;20496;-70
2022/08/29 02:30:55;;;;;;;37.22;10.07;;;;;;;18.35;87.87;101664.31;5093814;28;20023;-70
2022/08/29 02:33:21;;;;;;;37.78;9.82;;;;;;;18.26;88.44;101670.94;5094409;28;20023;-69
2022/08/29 02:35:47;;;;;;;35.38;9.27;;;;;;;18.32;88.15;101664.69;5112793;28;20335;-70
2022/08/29 02:38:14;;;;;;;37.97;8.60;;;;;;;18.37;87.77;101662.22;5093825;28;20034;-70
2022/08/29 02:40:40;;;;;;;42.70;10.18;;;;;;;18.17;88.70;101668.28;5087202;28;20146;-69
2022/08/29 02:43:06;;;;;;;45.55;10.02;;;;;;;18.07;89.02;101662.25;5073739;28;20496;-69
2022/08/29 02:45:36;;;;;;;31.55;9.60;;;;;;;18.13;89.37;101666.13;5091950;28;20026;-69
2022/08/29 02:48:01;;;;;;;35.47;9.02;;;;;;;18.40;87.72;101664.59;5073392;28;20023;-70
2022/08/29 02:50:27;;;;;;;34.85;9.40;;;;;;;18.49;87.17;101671.69;5072397;28;20024;-70
2022/08/29 02:52:52;;;;;;;27.75;8.55;;;;;;;18.60;86.82;101657.47;5074112;28;20055;-70
2022/08/29 02:55:21;;;;;;;29.73;9.60;;;;;;;18.50;87.05;101662.41;5073637;28;20070;-69
2022/08/29 02:57:46;;;;;;;42.90;9.23;;;;;;;18.38;87.57;101658.44;5073210;28;20047;-68
2022/08/29 03:00:21;;;;;;;36.25;9.90;;;;;;;18.37;87.85;101667.72;5073618;28;20024;-69
2022/08/29 03:02:48;;;;;;;38.10;9.05;;;;;;;18.33;87.61;101677.38;5073972;28;20042;-68
2022/08/29 03:05:15;;;;;;;45.85;10.95;;;;;;;18.15;88.94;101667.63;5073160;28;20020;-69
2022/08/29 03:07:40;;;;;;;40.95;10.15;;;;;;;18.16;89.31;101665.75;5073165;28;20078;-69
2022/08/29 03:10:06;;;;;;;42.30;11.43;;;;;;;18.01;90.07;101663.00;5073023;28;20024;-70
2022/08/29 03:12:33;;;;;;;44.33;10.32;;;;;;;18.17;89.27;101657.31;5090014;28;20480;-70
2022/08/29 03:14:58;;;;;;;39.67;10.15;;;;;;;18.24;88.76;101656.56;5073020;28;20111;-70
2022/08/29 03:17:24;;;;;;;34.78;10.18;;;;;;;18.27;88.68;101656.19;5090668;28;20494;-68
2022/08/29 03:19:49;;;;;;;34.85;11.30;;;;;;;18.03;89.71;101660.06;5072896;28;20532;-70
2022/08/29 03:22:15;;;;;;;38.42;11.55;;;;;;;18.10;89.48;101656.38;5072728;28;20056;-70
2022/08/29 03:24:40;;;;;;;30.85;10.85;;;;;;;18.20;89.13;101666.22;5090971;28;20115;-69
2022/08/29 03:27:05;;;;;;;36.70;11.13;;;;;;;17.93;90.50;101659.47;5073052;28;20074;-69
2022/08/29 03:29:31;;;;;;;34.83;11.43;;;;;;;18.06;89.78;101660.53;5090406;28;20167;-69
2022/08/29 03:31:57;;;;;;;50.05;11.52;;;;;;;17.98;90.26;101657.88;5072970;28;20020;-69
2022/08/29 03:34:28;;;;;;;34.95;11.85;;;;;;;17.94;90.82;101656.56;5072386;28;20020;-70
2022/08/29 03:36:54;;;;;;;;;;;;;;;17.80;91.80;101660.13;5073266;28;20032;-70
2022/08/29 03:39:20;;;;;;;37.97;11.20;;;;;;;17.88;91.30;101660.06;5072236;28;19915;-69
2022/08/29 03:41:45;;;;;;;40.90;13.35;;;;;;;17.57;93.09;101661.00;5090621;28;20020;-69
2022/08/29 03:44:11;;;;;;;42.47;11.98;;;;;;;17.60;92.92;101655.16;5072410;28;20023;-70
2022/08/29 03:46:38;;;;;;;42.38;11.57;;;;;;;17.88;90.92;101651.84;5072348;28;20063;-69
2022/08/29 03:49:06;;;;;;;42.33;11.15;;;;;;;17.90;90.95;101655.22;5070728;28;20035;-70
2022/08/29 03:51:33;;;;;;;42.13;11.30;;;;;;;17.81;91.42;101661.84;5071942;28;20020;-70
2022/08/29 03:53:59;;;;;;;53.97;13.68;;;;;;;17.81;91.28;101665.44;5071922;28;20182;-69
2022/08/29 03:56:26;;;;;;;45.92;12.50;;;;;;;17.81;91.64;101667.31;5072471;28;20147;-71
2022/08/29 03:58:51;;;;;;;51.55;12.80;;;;;;;17.94;90.94;101670.28;5071936;28;20024;-69
2022/08/29 04:01:18;;;;;;;42.15;12.10;;;;;;;17.91;90.95;101667.88;5071974;28;20529;-68
2022/08/29 04:03:43;;;;;;;35.35;13.05;;;;;;;17.89;91.21;101669.97;5072033;28;20036;-68
2022/08/29 04:06:10;;;;;;;42.28;11.77;;;;;;;18.01;90.49;101673.97;5090293;28;20020;-69
2022/08/29 04:08:35;;;;;;;44.67;13.52;;;;;;;17.85;91.37;101668.63;5071521;28;20504;-69
2022/08/29 04:11:06;;;;;;;39.45;12.88;;;;;;;17.85;91.22;101668.63;5071586;28;20027;-69
2022/08/29 04:13:32;;;;;;;48.20;12.88;;;;;;;17.93;90.68;101665.81;5072081;28;20048;-68
2022/08/29 04:15:57;;;;;;;46.65;13.82;;;;;;;17.87;91.24;101669.31;5072068;28;20078;-70
2022/08/29 04:18:22;;;;;;;37.50;13.95;;;;;;;17.82;90.89;101666.28;5089016;28;20024;-69
2022/08/29 04:20:48;;;;;;;38.17;12.93;;;;;;;17.93;90.47;101665.81;5089408;28;20035;-68
2022/08/29 04:23:14;;;;;;;32.45;12.13;;;;;;;17.91;90.27;101667.88;5084943;28;20074;-69
2022/08/29 04:25:41;;;;;;;35.25;12.77;;;;;;;17.79;90.55;101675.69;5092104;28;20030;-69
2022/08/29 04:28:09;;;;;;;36.60;13.23;;;;;;;17.79;90.96;101685.81;5109706;28;20702;-69
2022/08/29 04:30:37;;;;;;;33.00;14.82;;;;;;;17.41;93.18;101683.06;5091589;28;20020;-69
2022/08/29 04:33:02;;;;;;;33.58;14.65;;;;;;;17.52;92.50;101692.69;5102117;28;20019;-69
2022/08/29 04:35:28;;;;;;;33.45;14.38;;;;;;;17.60;92.53;101698.97;5070692;28;20047;-68
2022/08/29 04:37:54;;;;;;;27.38;14.32;;;;;;;17.60;92.50;101704.47;5070511;28;20503;-68
2022/08/29 04:40:21;;;;;;;28.92;13.07;;;;;;;17.69;92.02;101712.59;5070938;28;20366;-69
2022/08/29 04:42:47;;;;;;;29.58;14.95;;;;;;;17.61;92.33;101711.63;5071257;28;20016;-68
2022/08/29 04:45:16;;;;;;;33.67;14.88;;;;;;;17.82;91.49;101712.84;5089150;28;20058;-69
2022/08/29 04:47:42;;;;;;;33.03;16.77;;;;;;;17.37;93.13;101709.09;5071077;28;20028;-68
2022/08/29 04:50:12;;;;;;;28.00;16.70;;;;;;;17.28;94.05;101710.19;5088632;28;20039;-69
2022/08/29 04:52:38;;;;;;;29.98;16.30;;;;;;;17.27;93.71;101703.81;5089251;28;20032;-69
2022/08/29 04:55:06;;;;;;;34.05;16.13;;;;;;;17.24;93.77;101714.31;5089149;28;20111;-69
2022/08/29 04:57:33;;;;;;;30.65;14.35;;;;;;;17.32;93.38;101711.50;5071187;28;20097;-67
2022/08/29 04:59:58;;;;;;;31.23;16.17;;;;;;;17.15;93.09;101712.63;5071364;28;20047;-67
2022/08/29 05:02:25;;;;;;;29.48;14.50;;;;;;;17.04;93.52;101720.25;5071555;28;20024;-69
2022/08/29 05:04:51;;;;;;;27.05;13.73;;;;;;;17.05;93.32;101716.47;5088449;28;20057;-71
2022/08/29 05:07:22;;;;;;;25.90;12.90;;;;;;;17.19;92.25;101716.72;5088982;28;20036;-69
2022/08/29 05:09:54;;;;;;;24.90;13.15;;;;;;;17.06;92.00;101723.66;5088974;28;20078;-69
2022/08/29 05:12:19;;;;;;;;;;;;;;;17.12;92.17;101726.69;5071942;28;20472;-69
2022/08/29 05:14:44;;;;;;;24.98;11.60;;;;;;;17.39;90.46;101722.56;5070870;28;19915;-69
2022/08/29 05:17:09;;;;;;;20.27;10.75;;;;;;;17.39;90.05;101725.31;5070650;28;20483;-70
2022/08/29 05:19:36;;;;;;;22.58;11.57;;;;;;;17.49;89.96;101718.56;5070005;28;20400;-70
2022/08/29 05:22:01;;;;;;;20.92;10.43;;;;;;;17.55;89.11;101717.84;5070825;28;20016;-70
2022/08/29 05:24:27;;;;;;;14.50;9.50;;;;;;;17.57;88.55;101718.50;5089233;28;20554;-70
2022/08/29 05:26:52;;;;;;;15.75;8.88;;;;;;;17.69;87.79;101727.13;5070958;28;20045;-70
2022/08/29 05:29:19;;;;;;;15.32;8.57;;;;;;;17.68;87.43;101727.34;5070047;28;20055;-68
2022/08/29 05:31:45;;;;;;;15.27;8.15;;;;;;;17.79;86.54;101729.63;5071930;28;20099;-69
2022/08/29 05:34:11;;;;;;;13.43;7.60;;;;;;;17.72;86.68;101736.91;5087762;28;20540;-69
2022/08/29 05:36:36;;;;;;;11.23;7.85;;;;;;;17.63;86.50;101739.69;5069494;28;20051;-69
2022/08/29 05:39:02;;;;;;;14.13;7.05;;;;;;;17.84;85.78;101738.16;5087604;28;20099;-69
2022/08/29 05:41:28;;;;;;;11.70;6.38;;;;;;;18.00;85.19;101732.56;5088236;28;20036;-69
2022/08/29 05:43:54;;;;;;;14.93;7.78;;;;;;;17.77;85.31;101742.69;5069916;28;20050;-69
2022/08/29 05:46:20;;;;;;;12.25;6.75;;;;;;;17.85;85.37;101739.88;5088130;28;20387;-69
2022/08/29 05:48:45;;;;;;;12.38;6.60;;;;;;;17.87;84.88;101748.78;5086959;28;20032;-69
2022/08/29 05:51:16;;;;;;;14.70;7.35;;;;;;;17.62;86.25;101746.19;5070342;28;20031;-70
2022/08/29 05:53:41;;;;;;;10.43;6.15;;;;;;;17.56;85.61;101746.94;5088625;28;20028;-69
2022/08/29 05:56:07;;;;;;;10.80;6.82;;;;;;;17.71;85.17;101743.38;5070696;28;20028;-69
2022/08/29 05:58:32;;;;;;;10.43;5.25;;;;;;;17.88;84.30;101753.22;5070602;28;20024;-70
2022/08/29 06:00:58;;;;;;;9.95;4.93;;;;;;;17.45;85.39;101750.09;5088480;28;20503;-68
2022/08/29 06:03:23;;;;;;;14.15;5.35;;;;;;;17.48;85.00;101757.94;5070726;28;20452;-69
2022/08/29 06:05:52;;;;;;;12.55;5.60;;;;;;;17.57;84.60;101756.84;5069849;28;20023;-70
2022/08/29 06:08:19;;;;;;;15.73;5.07;;;;;;;17.67;83.57;101755.72;5088074;28;20127;-69
2022/08/29 06:10:45;;;;;;;9.82;4.47;;;;;;;17.77;83.36;101759.13;5069758;28;20063;-70
2022/08/29 06:13:11;;;;;;;8.15;4.00;;;;;;;17.77;83.26;101753.63;5070721;28;20051;-70
2022/08/29 06:15:37;;;;;;;11.07;4.32;;;;;;;17.71;83.25;101759.81;5069797;28;20023;-70
2022/08/29 06:18:03;;;;;;;10.55;4.63;;;;;;;17.83;82.42;101763.88;5087832;28;20459;-70
2022/08/29 06:20:28;;;;;;;9.02;3.60;;;;;;;17.85;82.27;101761.78;5070003;28;20020;-70
2022/08/29 06:22:54;;;;;;;14.23;4.88;;;;;;;18.08;80.76;101759.88;5070351;28;20027;-70
2022/08/29 06:25:19;;;;;;;6.20;3.50;;;;;;;18.01;81.11;101756.16;5069835;28;20031;-71
2022/08/29 06:27:45;;;;;;;6.25;2.22;;;;;;;18.14;80.51;101756.38;5069946;28;20031;-70
2022/08/29 06:30:10;;;;;;;5.40;2.85;;;;;;;18.02;80.67;101766.09;5087713;28;20028;-69
2022/08/29 06:32:39;;;;;;;3.17;2.20;;;;;;;18.38;79.15;101757.16;5101184;28;20033;-70
2022/08/29 06:35:05;;;;;;;5.05;2.75;;;;;;;18.41;78.81;101774.09;5090348;28;20069;-70
2022/08/29 06:37:30;;;;;;;5.93;3.50;;;;;;;18.56;78.60;101781.47;5090822;28;20426;-69
2022/08/29 06:39:55;;;;;;;4.60;2.38;;;;;;;18.76;77.30;101781.78;5090237;28;20020;-68
2022/08/29 06:42:23;;;;;;;4.40;2.55;;;;;;;18.96;76.86;101782.91;5090340;28;20027;-69
2022/08/29 06:44:49;;;;;;;7.47;3.97;;;;;;;18.88;77.71;101780.28;5089962;28;20072;-68
2022/08/29 06:47:15;;;;;;;11.05;4.57;;;;;;;18.74;78.11;101767.41;5081407;28;20034;-68
2022/08/29 06:49:41;;;;;;;9.57;4.18;;;;;;;18.61;78.78;101773.53;5049117;28;20150;-69
2022/08/29 06:52:06;;;;;;;9.13;3.72;;;;;;;18.54;79.08;101778.94;5078926;28;20044;-70
2022/08/29 06:54:32;;;;;;;10.13;6.05;;;;;;;18.24;79.94;101782.66;5065017;28;20031;-69
2022/08/29 06:56:58;;;;;;;10.32;3.65;;;;;;;18.18;80.28;101778.78;5065030;28;20069;-70
2022/08/29 06:59:23;;;;;;;9.10;4.05;;;;;;;18.29;79.99;101780.22;5064086;28;20142;-70
2022/08/29 07:01:49;;;;;;;7.60;3.38;;;;;;;18.45;79.19;101791.00;5067737;28;20119;-70
2022/08/29 07:04:15;;;;;;;10.38;5.53;;;;;;;18.50;79.12;101794.03;5066124;28;20538;-70
2022/08/29 07:06:40;;;;;;;22.58;12.15;;;;;;;18.64;78.36;101784.13;5061788;28;20115;-69
2022/08/29 07:09:06;;;;;;;4.22;3.08;;;;;;;18.64;78.65;101779.47;5066140;28;20024;-71
2022/08/29 07:11:33;;;;;;;10.13;3.53;;;;;;;18.68;78.34;101771.75;5064416;28;20036;-69
2022/08/29 07:14:00;;;;;;;9.38;3.42;;;;;;;18.70;78.23;101776.00;5065645;28;20059;-69
2022/08/29 07:16:27;;;;;;;7.45;3.40;;;;;;;18.63;78.58;101782.41;5067661;28;20130;-70
2022/08/29 07:18:53;;;;;;;5.43;3.40;;;;;;;18.78;77.60;101785.19;5065708;28;20051;-70
2022/08/29 07:21:21;;;;;;;4.05;2.55;;;;;;;18.61;77.68;101779.88;5084007;28;20016;-70
2022/08/29 07:23:51;;;;;;;6.88;2.45;;;;;;;18.69;77.43;101777.06;5059360;28;20012;-70
2022/08/29 07:26:29;;;;;;;7.07;2.75;;;;;;;18.61;77.80;101779.88;5064432;28;20028;-70
2022/08/29 07:28:58;;;;;;;5.30;3.03;;;;;;;18.38;78.45;101779.09;5085235;28;20032;-71
2022/08/29 07:31:24;;;;;;;4.97;3.38;;;;;;;18.57;78.00;101781.28;5067520;28;20049;-71
2022/08/29 07:33:49;;;;;;;5.65;2.65;;;;;;;18.36;78.37;101783.91;5070233;28;20028;-71
2022/08/29 07:36:15;;;;;;;6.35;2.55;;;;;;;18.63;77.78;101791.50;5068253;28;20017;-70
2022/08/29 07:38:40;;;;;;;5.05;2.63;;;;;;;18.87;76.23;101789.53;5069185;28;20035;-70
2022/08/29 07:41:09;;;;;;;14.25;2.58;;;;;;;19.13;75.58;101792.63;5064759;28;20012;-70
2022/08/29 07:43:35;;;;;;;3.33;2.00;;;;;;;19.53;73.66;101784.84;5065924;28;20032;-71
2022/08/29 07:46:09;;;;;;;3.35;1.75;;;;;;;19.96;72.03;101785.75;5067092;28;20496;-71
2022/08/29 07:48:35;;;;;;;11.55;5.95;;;;;;;20.32;70.62;101787.50;5066160;28;20041;-71
2022/08/29 07:51:01;;;;;;;11.38;3.72;;;;;;;20.46;70.30;101796.72;5064520;28;20032;-71
2022/08/29 07:53:26;;;;;;;5.57;2.30;;;;;;;20.45;69.88;101786.78;5066349;28;20511;-70
2022/08/29 07:55:52;;;;;;;6.65;2.72;;;;;;;19.88;71.29;101793.25;5065612;28;20066;-71
2022/08/29 07:58:17;;;;;;;7.07;3.85;;;;;;;19.62;72.30;101800.19;5059770;28;20028;-70
2022/08/29 08:00:42;;;;;;;6.15;2.38;;;;;;;19.37;72.81;101801.59;5064584;28;20024;-70
2022/08/29 08:03:09;;;;;;;6.70;1.92;;;;;;;19.38;73.29;101797.78;5065104;28;20028;-70
2022/08/29 08:05:37;;;;;;;2.60;2.17;;;;;;;19.39;73.04;101810.47;5064990;28;20043;-71
2022/08/29 08:08:02;;;;;;;6.57;1.90;;;;;;;19.21;73.64;101809.00;5066953;28;20034;-71
2022/08/29 08:10:28;;;;;;;3.70;1.73;;;;;;;19.47;72.70;101813.09;5073506;28;20024;-70
2022/08/29 08:12:53;;;;;;;7.03;2.10;;;;;;;19.91;71.36;101820.38;5074203;28;20064;-72
2022/08/29 08:15:20;;;;;;;6.20;1.60;;;;;;;20.13;70.73;101813.78;5070844;28;20030;-70
2022/08/29 08:17:48;;;;;;;4.38;1.77;;;;;;;20.24;69.54;101816.00;5074650;28;20059;-70
2022/08/29 08:20:14;;;;;;;5.95;1.80;;;;;;;20.39;68.79;101813.16;5092922;28;20115;-70
2022/08/29 08:22:40;;;;;;;3.95;2.10;;;;;;;20.36;68.56;101824.56;5075227;28;20034;-69
2022/08/29 08:25:05;;;;;;;3.00;1.80;;;;;;;20.23;69.18;101824.47;5074413;28;20108;-70
2022/08/29 08:27:31;;;;;;;3.33;1.67;;;;;;;20.23;69.39;101822.56;5074279;28;20036;-69
2022/08/29 08:29:57;;;;;;;2.22;1.33;;;;;;;20.38;68.39;101827.97;5074554;28;20118;-70
2022/08/29 08:32:22;;;;;;;4.10;1.85;;;;;;;20.90;66.81;101831.31;5063677;28;20066;-71
2022/08/29 08:34:48;;;;;;;5.22;2.83;;;;;;;21.04;66.17;101816.56;5054693;28;20083;-70
2022/08/29 08:37:13;;;;;;;5.00;1.42;;;;;;;21.10;65.57;101827.59;5054193;28;20024;-70
2022/08/29 08:39:38;;;;;;;9.75;2.45;;;;;;;20.91;66.55;101822.00;5072339;28;20036;-69
2022/08/29 08:42:22;;;;;;;10.38;1.60;;;;;;;21.07;66.04;101816.16;5054714;28;20061;-70
2022/08/29 08:45:07;;;;;;;8.30;1.58;;;;;;;21.04;66.68;101822.06;5087865;28;20025;-71
2022/08/29 08:47:39;;;;;;;6.75;1.70;;;;;;;21.03;66.54;101817.59;5055498;28;20127;-70
2022/08/29 08:50:22;;;;;;;6.07;1.73;;;;;;;21.34;65.47;101818.00;5063929;28;20029;-69
2022/08/29 08:52:58;;;;;;;7.57;1.92;;;;;;;20.95;66.01;101828.81;5086581;28;20059;-71
2022/08/29 08:55:38;;;;;;;7.07;1.38;;;;;;;20.89;66.40;101832.38;5073453;28;20038;-70
2022/08/29 08:58:22;;;;;;;6.43;1.80;;;;;;;20.90;66.58;101832.16;5073274;28;20040;-71
2022/08/29 09:01:17;;;;;;;4.43;1.95;;;;;;;21.04;65.91;101827.56;5091199;28;20020;-72
2022/08/29 09:04:16;;;;;;;2.72;1.25;;;;;;;21.21;65.98;101823.41;5073015;28;20042;-70
2022/08/29 09:07:02;;;;;;;5.50;1.30;;;;;;;21.93;62.68;101817.28;5073021;28;20043;-70
2022/08/29 09:09:44;;;;;;;8.15;1.27;;;;;;;20.98;66.01;101833.88;5072069;28;20048;-72
2022/08/29 09:12:47;;;;;;;5.15;1.35;;;;;;;21.08;65.50;101826.97;5073033;28;20036;-70
2022/08/29 09:15:16;;;;;;;4.30;1.38;;;;;;;21.14;65.43;101833.56;5072864;28;20058;-71
2022/08/29 09:17:53;;;;;;;7.50;1.67;;;;;;;21.21;65.54;101833.59;5072470;28;20032;-70
2022/08/29 09:20:24;;;;;;;7.72;2.13;;;;;;;21.03;65.78;101842.38;5065472;28;20050;-71
2022/08/29 09:23:17;;;;;;;2.27;1.37;;;;;;;20.77;66.80;101838.44;5090819;28;20406;-71
2022/08/29 09:25:42;;;;;;;4.13;1.45;;;;;;;21.02;66.07;101835.19;5062652;28;20131;-70
2022/08/29 09:28:08;;;;;;;3.85;1.70;;;;;;;21.05;66.20;101834.78;5072698;28;20119;-71
2022/08/29 09:30:36;;;;;;;4.95;1.50;;;;;;;21.08;66.21;101834.38;5072976;28;20388;-71
2022/08/29 09:33:09;;;;;;;5.25;1.88;;;;;;;21.03;65.98;101836.88;5089602;28;20020;-71
2022/08/29 09:35:39;;;;;;;3.88;1.38;;;;;;;20.95;66.67;101837.91;5093413;28;20020;-70
2022/08/29 09:38:07;;;;;;;5.80;1.50;;;;;;;20.93;66.69;101836.41;5092326;28;20025;-69
2022/08/29 09:40:49;;;;;;;8.35;1.83;;;;;;;21.15;65.97;101840.75;5086330;28;20048;-70
2022/08/29 09:43:19;;;;;;;3.58;1.10;;;;;;;21.57;64.59;101838.81;5070070;28;20111;-71
2022/08/29 09:46:22;;;;;;;8.45;1.40;;;;;;;21.36;64.19;101840.66;5069584;28;20031;-71
2022/08/29 09:49:13;;;;;;;2.30;1.35;;;;;;;21.43;63.80;101831.56;5068713;28;20034;-69
2022/08/29 09:51:47;;;;;;;2.95;1.20;;;;;;;21.89;62.55;101838.06;5085994;28;20084;-70
2022/08/29 09:54:12;;;;;;;1.83;1.17;;;;;;;21.83;62.20;101836.13;5069745;28;20024;-70
2022/08/29 09:56:47;;;;;;;1.17;0.88;;;;;;;22.21;60.46;101846.63;5069536;28;20077;-69
2022/08/29 09:59:21;;;;;;;3.08;1.10;;;;;;;21.75;61.24;101847.38;5070196;28;20016;-70
2022/08/29 10:01:48;;;;;;;1.65;0.90;;;;;;;21.88;60.80;101852.91;5069185;28;20016;-69
2022/08/29 10:04:38;;;;;;;2.92;1.20;;;;;;;21.37;61.83;101845.13;5070145;28;20050;-70
2022/08/29 10:07:13;;;;;;;6.95;1.23;;;;;;;21.74;61.43;101856.69;5069852;28;20028;-70
2022/08/29 10:09:39;;;;;;;2.25;1.10;;;;;;;21.66;61.83;101843.13;5087133;28;20039;-69
2022/08/29 10:12:11;;;;;;;5.00;1.00;;;;;;;21.63;61.52;101851.78;5070040;28;20025;-71
2022/08/29 10:14:46;;;;;;;3.08;1.00;;;;;;;21.56;60.96;101845.41;5070197;28;20055;-69
2022/08/29 10:20:08;;;;;;;2.30;0.98;;;;;;;21.98;60.23;101857.19;5087949;28;20016;-70
2022/08/29 10:23:00;;;;;;;4.15;0.93;;;;;;;21.77;60.08;101856.25;5072576;28;20028;-70
2022/08/29 10:25:38;;;;;;;3.47;1.80;;;;;;;21.99;59.35;101847.84;5074033;28;20484;-70
2022/08/29 10:28:12;;;;;;;0.95;0.82;;;;;;;21.79;59.13;101854.16;5091006;28;20032;-70
2022/08/29 10:30:49;;;;;;;2.55;0.90;;;;;;;21.82;60.21;101853.75;5092029;28;20115;-69
2022/08/29 10:33:27;;;;;;;2.92;1.05;;;;;;;21.65;60.29;101856.06;5092344;28;20030;-70
2022/08/29 10:36:10;;;;;;;2.35;0.77;;;;;;;21.94;60.18;101852.06;5093621;28;20020;-71
2022/08/29 10:38:59;;;;;;;1.10;0.80;;;;;;;21.88;60.56;101850.16;5093805;28;20047;-71
2022/08/29 10:41:39;;;;;;;1.20;0.77;;;;;;;22.11;59.85;101857.22;5093901;28;20382;-70
2022/08/29 10:44:41;;;;;;;9.90;0.98;;;;;;;21.85;60.08;101853.34;5112486;28;20031;-70
2022/08/29 10:47:17;;;;;;;4.50;1.10;;;;;;;21.81;60.28;101857.56;5107022;28;20077;-71
2022/08/29 10:49:58;;;;;;;1.70;0.70;;;;;;;22.43;58.79;101867.44;5073519;28;20045;-70
2022/08/29 10:52:37;;;;;;;1.10;0.73;;;;;;;21.97;59.65;101860.97;5091487;28;20024;-70
2022/08/29 10:55:27;;;;;;;1.33;0.80;;;;;;;21.91;59.07;101863.53;5073417;28;20038;-72
2022/08/29 10:58:15;;;;;;;1.85;0.90;;;;;;;22.03;59.06;101860.97;5091140;28;20012;-71
2022/08/29 11:01:11;;;;;;;3.03;0.90;;;;;;;22.24;58.90;101868.28;5073213;28;20028;-70
2022/08/29 11:03:54;;;;;;;2.00;1.10;;;;;;;21.86;60.60;101866.06;5073843;28;20088;-70
2022/08/29 11:06:31;;;;;;;3.22;1.33;;;;;;;21.80;60.74;101872.41;5072424;28;20024;-70
2022/08/29 11:09:08;;;;;;;6.63;1.10;;;;;;;21.93;61.09;101866.91;5072034;28;20088;-71
2022/08/29 11:11:36;;;;;;;3.28;0.80;;;;;;;21.99;60.43;101876.28;5089956;28;20043;-71
2022/08/29 11:14:07;;;;;;;2.47;1.20;;;;;;;21.56;62.00;101870.19;5072930;28;20073;-71
2022/08/29 11:16:39;;;;;;;7.50;1.38;;;;;;;21.62;62.14;101881.25;5072659;28;20088;-69
2022/08/29 11:19:14;;;;;;;3.35;1.25;;;;;;;21.69;62.19;101875.75;5081198;28;20050;-70
2022/08/29 11:21:47;;;;;;;2.53;0.95;;;;;;;22.03;61.13;101865.66;5073093;28;20035;-70
2022/08/29 11:24:15;;;;;;;4.78;1.45;;;;;;;22.17;60.42;101868.28;5090394;28;20027;-70
2022/08/29 11:26:43;;;;;;;2.45;0.82;;;;;;;22.09;60.75;101870.38;5090568;28;20358;-70
2022/08/29 11:29:14;;;;;;;2.92;1.30;;;;;;;22.46;59.38;101868.91;5063986;28;20051;-71
2022/08/29 11:31:58;;;;;;;3.85;1.27;;;;;;;22.36;59.52;101866.56;5069386;28;20066;-69
2022/08/29 11:34:43;;;;;;;2.13;1.05;;;;;;;22.79;58.72;101865.25;5072228;28;20035;-70